Time;durP1;ratioP1;P1;durP2;ratioP2;P2;SDS_P1;SDS_P2;PMS_P1;PMS_P2;Temp;Humidity;BMP_temperature;BMP_pressure;BME280_temperature;BME280_humidity;BME280_pressure;Samples;Min_cycle;Max_cycle;Signal;HPM_P1;HPM_P2
2022/11/16 00:02:23;;;;;;;1.30;0.80;;;15.40;83.60;;;;;;20680905;28;20046;-60
2022/11/16 00:12:25;;;;;;;2.13;1.10;;;15.40;82.90;;;;;;20680081;28;20054;-60
2022/11/16 00:22:26;;;;;;;2.05;1.15;;;15.30;82.40;;;;;;20678094;28;20051;-60
2022/11/16 00:32:28;;;;;;;2.05;0.90;;;15.30;81.90;;;;;;20659743;28;20506;-59
2022/11/16 00:42:30;;;;;;;2.35;1.00;;;15.20;81.50;;;;;;20677062;28;20053;-60
2022/11/16 00:52:31;;;;;;;1.58;1.00;;;15.20;81.10;;;;;;20676966;28;20164;-61
2022/11/16 01:02:33;;;;;;;2.70;0.68;;;15.20;81.10;;;;;;20674863;28;20042;-61
2022/11/16 01:12:34;;;;;;;5.30;3.28;;;15.20;81.00;;;;;;20674765;28;20058;-59
2022/11/16 01:22:38;;;;;;;2.90;1.10;;;15.00;81.00;;;;;;20673320;28;20532;-59
2022/11/16 01:32:40;;;;;;;1.63;0.93;;;15.10;80.60;;;;;;20672336;28;20046;-59
2022/11/16 01:42:42;;;;;;;5.68;1.40;;;14.70;81.50;;;;;;20653694;28;20092;-60
2022/11/16 01:52:53;;;;;;;5.30;1.10;;;14.70;81.80;;;;;;20670533;28;20077;-59
2022/11/16 02:02:55;;;;;;;2.50;0.85;;;14.80;81.70;;;;;;20670320;28;20486;-58
2022/11/16 02:13:21;;;;;;;4.55;0.93;;;14.70;81.60;;;;;;20670615;28;20046;-59
2022/11/16 02:23:40;;;;;;;2.08;0.80;;;14.70;80.70;;;;;;20668604;28;20058;-60
2022/11/16 02:33:44;;;;;;;3.42;1.10;;;14.50;80.90;;;;;;20669398;28;20061;-59
2022/11/16 02:43:53;;;;;;;4.47;2.03;;;14.20;80.80;;;;;;20668048;28;20047;-59
2022/11/16 02:54:11;;;;;;;3.30;1.00;;;14.40;80.40;;;;;;20667276;28;20059;-59
2022/11/16 03:04:18;;;;;;;3.95;1.02;;;14.40;79.20;;;;;;20683897;28;20042;-59
2022/11/16 03:14:22;;;;;;;2.40;1.02;;;14.50;78.30;;;;;;20683208;28;20506;-60
2022/11/16 03:24:24;;;;;;;3.72;1.25;;;14.30;77.80;;;;;;20682660;28;20407;-60
2022/11/16 03:34:31;;;;;;;4.20;1.10;;;14.20;78.50;;;;;;20682393;28;20483;-60
2022/11/16 03:44:34;;;;;;;3.22;1.65;;;14.20;78.10;;;;;;20681307;28;20046;-61
2022/11/16 03:54:35;;;;;;;4.05;1.20;;;14.20;78.60;;;;;;20679969;28;20055;-59
2022/11/16 04:25:36;;;;;;;7.20;1.77;;;14.00;79.10;;;;;;20429537;29;20115;-60
2022/11/16 04:56:27;;;;;;;5.80;1.63;;;13.70;79.70;;;;;;20676470;28;20082;-59
2022/11/16 05:06:32;;;;;;;6.65;2.05;;;13.70;79.60;;;;;;20675023;28;20070;-60
2022/11/16 05:16:34;;;;;;;6.68;1.55;;;13.70;79.10;;;;;;20674112;28;20086;-59
2022/11/16 05:26:37;;;;;;;5.22;1.35;;;13.60;78.70;;;;;;20672799;28;20073;-60
2022/11/16 05:36:39;;;;;;;4.93;1.35;;;13.50;78.30;;;;;;20673132;28;20050;-60
2022/11/16 05:46:48;;;;;;;7.72;1.80;;;13.50;78.30;;;;;;20671795;28;20137;-58
2022/11/16 05:56:50;;;;;;;7.45;1.88;;;13.60;78.00;;;;;;20671081;28;20050;-60
2022/11/16 06:06:51;;;;;;;8.63;1.60;;;13.50;78.20;;;;;;20670962;28;20434;-61
2022/11/16 06:16:53;;;;;;;4.40;1.35;;;13.50;77.90;;;;;;20670514;28;20058;-60
2022/11/16 06:26:55;;;;;;;6.30;1.73;;;13.40;77.80;;;;;;20668382;28;20086;-60
2022/11/16 06:37:01;;;;;;;9.10;1.73;;;13.40;77.90;;;;;;20668751;28;20473;-60
2022/11/16 06:47:03;;;;;;;6.47;1.45;;;13.40;77.90;;;;;;20667827;28;20053;-59
2022/11/16 06:57:05;;;;;;;7.35;2.28;;;13.50;77.20;;;;;;20667505;28;20054;-59
2022/11/16 07:07:07;;;;;;;8.82;2.58;;;13.50;77.20;;;;;;20667468;28;20054;-59
2022/11/16 07:17:09;;;;;;;12.30;4.07;;;13.60;77.10;;;;;;20666834;28;20058;-59
2022/11/16 07:27:10;;;;;;;12.40;3.10;;;13.50;77.70;;;;;;20666131;28;20085;-59
2022/11/16 07:37:12;;;;;;;7.20;2.33;;;13.30;78.10;;;;;;20666752;28;20116;-59
2022/11/16 07:47:14;;;;;;;11.18;3.15;;;13.40;77.60;;;;;;20677140;28;20133;-59
2022/11/16 07:57:15;;;;;;;10.02;2.10;;;13.40;77.60;;;;;;20681070;28;20214;-59
2022/11/16 08:07:17;;;;;;;15.60;3.08;;;13.30;77.20;;;;;;20678611;28;20046;-59
2022/11/16 08:17:19;;;;;;;8.85;2.97;;;13.50;76.40;;;;;;20679001;28;20462;-60
2022/11/16 08:27:22;;;;;;;6.55;2.70;;;13.60;76.20;;;;;;20678110;28;20050;-59
2022/11/16 08:37:26;;;;;;;10.20;2.30;;;13.70;75.80;;;;;;20676573;28;20499;-59
2022/11/16 08:47:28;;;;;;;11.38;2.80;;;13.90;75.60;;;;;;20677887;28;20057;-59
2022/11/16 08:57:30;;;;;;;8.57;2.45;;;14.00;76.00;;;;;;20677340;28;20450;-60
2022/11/16 09:07:32;;;;;;;7.97;2.42;;;14.00;75.00;;;;;;20675090;28;20053;-59
2022/11/16 09:17:33;;;;;;;5.78;2.50;;;14.20;74.50;;;;;;20674306;28;20054;-60
2022/11/16 09:27:36;;;;;;;8.00;3.03;;;14.10;74.60;;;;;;20672966;28;20141;-60
2022/11/16 09:37:37;;;;;;;4.00;1.65;;;14.20;74.60;;;;;;20672609;28;20086;-61
2022/11/16 09:47:50;;;;;;;5.32;2.05;;;14.50;73.90;;;;;;20671841;28;20112;-60
2022/11/16 09:57:55;;;;;;;5.32;1.73;;;14.60;73.10;;;;;;20670931;28;20050;-59
2022/11/16 10:08:05;;;;;;;4.13;1.30;;;14.70;72.90;;;;;;20669505;28;20050;-67
2022/11/16 10:18:37;;;;;;;5.47;1.40;;;15.10;73.60;;;;;;20687303;28;20491;-64
2022/11/16 10:29:24;;;;;;;5.50;2.38;;;16.10;68.10;;;;;;20668779;28;20093;-61
2022/11/16 10:39:26;;;;;;;5.20;2.13;;;15.20;70.50;;;;;;20419435;28;20051;-70
2022/11/16 10:49:35;;;;;;;6.32;2.65;;;15.10;71.90;;;;;;20418690;28;20460;-61
2022/11/16 10:59:43;;;;;;;4.05;1.38;;;15.30;70.20;;;;;;20419678;28;20059;-61
2022/11/16 11:09:52;;;;;;;4.65;1.70;;;15.20;70.40;;;;;;20513104;28;20138;-60
2022/11/16 11:20:15;;;;;;;5.63;2.70;;;15.20;70.70;;;;;;20674769;28;20050;-62
2022/11/16 11:30:21;;;;;;;3.97;2.00;;;15.20;71.20;;;;;;20681880;28;20137;-63
2022/11/16 11:40:22;;;;;;;13.43;2.22;;;15.40;70.40;;;;;;20681935;28;20046;-62
2022/11/16 11:50:48;;;;;;;4.07;1.50;;;15.40;69.90;;;;;;20680998;28;20061;-61
2022/11/16 12:01:31;;;;;;;5.35;1.75;;;15.20;71.30;;;;;;20679186;28;20062;-62
2022/11/16 12:11:36;;;;;;;5.63;1.70;;;15.20;72.20;;;;;;20351792;29;20488;-63
2022/11/16 12:21:49;;;;;;;;;;;15.10;73.50;;;;;;20351052;29;20056;-62
2022/11/16 12:32:16;;;;;;;5.28;1.77;;;15.00;73.80;;;;;;20350075;29;19923;-61
2022/11/16 12:42:41;;;;;;;5.68;2.15;;;15.00;74.90;;;;;;20444184;28;20465;-62
2022/11/16 12:52:47;;;;;;;4.20;2.08;;;14.90;76.00;;;;;;20676492;28;20051;-62
2022/11/16 13:03:13;;;;;;;4.80;1.90;;;14.70;77.70;;;;;;20677246;28;20086;-63
2022/11/16 13:13:24;;;;;;;6.65;2.00;;;14.70;77.90;;;;;;20674267;28;20065;-62
2022/11/16 13:23:29;;;;;;;7.32;2.45;;;14.70;78.30;;;;;;20672850;28;20556;-61
2022/11/16 13:33:43;;;;;;;6.25;2.08;;;14.70;79.30;;;;;;20671540;28;20129;-62
2022/11/16 13:43:48;;;;;;;7.22;1.95;;;14.50;79.90;;;;;;20671195;28;20559;-63
2022/11/16 13:53:52;;;;;;;4.78;1.70;;;14.60;79.90;;;;;;20671672;28;20057;-62
2022/11/16 14:04:36;;;;;;;3.47;1.75;;;14.60;80.10;;;;;;20670634;28;20385;-60
2022/11/16 14:15:14;;;;;;;2.53;1.10;;;14.60;80.50;;;;;;20343147;29;20139;-61
2022/11/16 14:25:54;;;;;;;3.67;1.38;;;14.60;80.70;;;;;;20341219;29;20059;-61
2022/11/16 14:35:55;;;;;;;4.18;1.90;;;14.60;81.10;;;;;;20341905;29;20154;-62
2022/11/16 14:46:02;;;;;;;3.97;1.90;;;14.70;81.10;;;;;;20444605;28;20454;-61
2022/11/16 14:56:12;;;;;;;2.70;1.30;;;14.70;80.20;;;;;;20686561;28;20054;-60
2022/11/16 15:06:15;;;;;;;3.30;2.08;;;14.70;80.90;;;;;;20694410;28;20454;-62
2022/11/16 15:16:19;;;;;;;4.50;2.53;;;14.60;80.90;;;;;;20693512;28;20117;-62
2022/11/16 15:26:22;;;;;;;10.25;6.30;;;14.70;81.00;;;;;;20692895;28;20058;-62
2022/11/16 15:36:25;;;;;;;5.43;2.03;;;14.70;81.30;;;;;;20692507;28;20150;-61
2022/11/16 15:46:30;;;;;;;6.63;2.38;;;14.50;81.20;;;;;;20692379;28;20137;-61
2022/11/16 15:56:32;;;;;;;4.78;2.03;;;14.50;81.60;;;;;;20692972;28;20084;-63
2022/11/16 16:06:49;;;;;;;7.38;3.10;;;14.50;81.70;;;;;;20684566;28;20128;-62
2022/11/16 16:16:54;;;;;;;3.63;2.40;;;14.50;81.90;;;;;;20678073;28;20051;-60
2022/11/16 16:26:55;;;;;;;4.38;1.92;;;14.60;81.70;;;;;;20676875;28;20058;-63
2022/11/16 16:36:57;;;;;;;5.82;2.13;;;14.50;82.10;;;;;;20677006;28;20486;-60
2022/11/16 16:46:58;;;;;;;9.75;5.82;;;14.50;82.20;;;;;;20677117;28;20188;-60
2022/11/16 16:57:01;;;;;;;5.95;3.25;;;14.50;83.10;;;;;;20675426;28;20050;-62
2022/11/16 17:07:03;;;;;;;4.30;2.58;;;14.50;83.20;;;;;;20675545;28;20049;-60
2022/11/16 17:17:04;;;;;;;4.88;2.50;;;14.30;83.40;;;;;;20672902;28;20089;-61
2022/11/16 17:27:06;;;;;;;4.32;2.45;;;14.20;83.70;;;;;;20672938;28;20050;-62
2022/11/16 17:37:08;;;;;;;4.95;2.78;;;14.30;83.40;;;;;;20672816;28;20054;-59
2022/11/16 17:47:10;;;;;;;6.30;3.50;;;14.30;83.40;;;;;;20671319;28;20081;-71
2022/11/16 17:57:12;;;;;;;4.25;2.90;;;14.90;80.90;;;;;;20670498;28;20205;-63
2022/11/16 18:07:13;;;;;;;6.20;2.92;;;14.10;84.30;;;;;;20672071;28;20105;-63
2022/11/16 18:17:15;;;;;;;5.85;3.17;;;14.00;84.60;;;;;;20652903;28;20482;-68
2022/11/16 18:27:17;;;;;;;5.93;2.75;;;14.10;84.20;;;;;;20666940;28;20116;-63
2022/11/16 18:37:19;;;;;;;4.55;2.40;;;14.10;83.80;;;;;;20668152;28;20050;-61
2022/11/16 18:47:20;;;;;;;5.22;2.70;;;14.20;83.80;;;;;;20650348;28;20152;-63
2022/11/16 18:57:22;;;;;;;5.43;2.72;;;14.10;84.60;;;;;;20649434;28;20487;-61
2022/11/16 19:07:24;;;;;;;6.75;2.42;;;14.20;84.80;;;;;;20667524;28;20042;-66
2022/11/16 19:17:26;;;;;;;4.22;3.00;;;14.90;83.90;;;;;;20667588;28;20490;-61
2022/11/16 19:27:31;;;;;;;6.20;3.40;;;15.00;81.40;;;;;;20666727;28;20060;-62
2022/11/16 19:37:33;;;;;;;7.35;3.33;;;14.70;82.30;;;;;;20668460;28;20060;-63
2022/11/16 19:47:34;;;;;;;5.65;3.20;;;14.70;82.30;;;;;;20682069;28;20054;-62
2022/11/16 19:57:36;;;;;;;4.28;3.30;;;14.60;82.50;;;;;;20679875;28;20054;-61
2022/11/16 20:07:37;;;;;;;4.07;2.20;;;14.60;82.60;;;;;;20680279;28;20133;-61
2022/11/16 20:17:39;;;;;;;4.15;2.10;;;14.40;83.20;;;;;;20678747;28;20050;-62
2022/11/16 20:27:41;;;;;;;2.83;1.55;;;14.40;83.30;;;;;;20677422;28;20108;-62
2022/11/16 20:37:44;;;;;;;3.22;2.05;;;14.40;83.50;;;;;;20676797;28;20054;-63
2022/11/16 20:47:45;;;;;;;2.85;1.98;;;14.50;83.30;;;;;;20676581;28;20462;-62
2022/11/16 20:57:47;;;;;;;5.85;3.10;;;14.40;83.60;;;;;;20675421;28;20077;-61
2022/11/16 21:07:48;;;;;;;4.07;2.65;;;14.60;83.40;;;;;;20675367;28;20073;-63
2022/11/16 21:17:50;;;;;;;4.95;2.92;;;14.70;83.60;;;;;;20676234;28;20509;-61
2022/11/16 21:27:53;;;;;;;6.32;3.17;;;14.60;84.10;;;;;;20740015;28;20141;-64
2022/11/16 21:37:54;;;;;;;3.70;3.00;;;14.60;84.20;;;;;;20755161;28;20049;-63
2022/11/16 21:47:57;;;;;;;3.20;2.20;;;14.60;84.20;;;;;;20753041;28;20042;-63
2022/11/16 21:57:59;;;;;;;3.97;2.40;;;14.50;84.70;;;;;;20752816;28;20054;-63
2022/11/16 22:08:05;;;;;;;3.67;2.58;;;14.50;84.90;;;;;;20752266;28;20413;-63
2022/11/16 22:18:07;;;;;;;3.95;2.40;;;14.60;84.70;;;;;;20751457;28;20512;-61
2022/11/16 22:28:09;;;;;;;2.67;1.90;;;14.70;84.30;;;;;;20750518;28;20109;-63
2022/11/16 22:38:10;;;;;;;2.10;0.93;;;14.70;84.30;;;;;;20750731;28;20049;-63
2022/11/16 22:48:12;;;;;;;2.13;0.93;;;14.70;84.80;;;;;;20750490;28;20397;-62
2022/11/16 22:58:13;;;;;;;1.92;1.15;;;14.70;85.20;;;;;;20749186;28;20355;-62
2022/11/16 23:08:15;;;;;;;3.28;1.80;;;14.70;85.60;;;;;;20749617;28;20107;-62
2022/11/16 23:18:18;;;;;;;6.75;2.55;;;14.70;85.80;;;;;;20762136;28;20479;-62
2022/11/16 23:28:20;;;;;;;5.32;2.28;;;14.70;85.60;;;;;;20763582;28;20050;-61
2022/11/16 23:38:21;;;;;;;2.78;1.90;;;14.80;85.40;;;;;;20763687;28;20053;-62
2022/11/16 23:48:23;;;;;;;1.85;1.30;;;14.80;85.20;;;;;;20763026;28;20050;-61
2022/11/16 23:58:24;;;;;;;4.53;1.50;;;14.90;85.20;;;;;;20762209;28;20061;-63
